Time;durP1;ratioP1;P1;durP2;ratioP2;P2;SDS_P1;SDS_P2;PMS_P1;PMS_P2;Temp;Humidity;BMP_temperature;BMP_pressure;BME280_temperature;BME280_humidity;BME280_pressure;Samples;Min_cycle;Max_cycle;Signal;HPM_P1;HPM_P2
2022/08/21 00:02:00;;;;;;;3.85;1.83;;;;;;;-140.72;100.00;52524.78;4960826;28;20038;-64
2022/08/21 00:04:25;;;;;;;1.17;0.60;;;;;;;-140.72;100.00;52520.72;4960318;28;20041;-65
2022/08/21 00:06:51;;;;;;;3.13;1.15;;;;;;;-140.72;100.00;52536.97;4956641;28;20037;-65
2022/08/21 00:09:18;;;;;;;2.08;1.10;;;;;;;-140.72;100.00;52504.50;4961344;28;20035;-64
2022/08/21 00:11:44;;;;;;;4.53;1.55;;;;;;;-140.72;100.00;52545.06;4957734;28;20388;-64
2022/08/21 00:14:10;;;;;;;2.65;1.10;;;;;;;-140.72;100.00;52575.50;4953097;28;20039;-65
2022/08/21 00:16:36;;;;;;;2.85;1.02;;;;;;;-140.72;100.00;52551.16;4964475;28;20291;-65
2022/08/21 00:19:02;;;;;;;2.67;1.08;;;;;;;-140.72;100.00;52510.59;4957781;28;20439;-65
2022/08/21 00:21:27;;;;;;;2.80;1.27;;;;;;;-140.72;100.00;52567.41;4953410;28;20046;-64
2022/08/21 00:23:53;;;;;;;5.28;1.40;;;;;;;-140.72;100.00;52528.84;4953380;28;20106;-65
2022/08/21 00:26:18;;;;;;;1.55;0.93;;;;;;;-140.72;100.00;52547.09;4963358;28;20468;-64
2022/08/21 00:28:45;;;;;;;1.95;0.93;;;;;;;-140.72;100.00;52591.75;4963853;28;20054;-64
2022/08/21 00:31:11;;;;;;;6.63;1.48;;;;;;;-140.72;100.00;52583.63;4953729;28;20032;-64
2022/08/21 00:33:36;;;;;;;2.35;1.20;;;;;;;-140.72;100.00;52585.66;4961269;28;20089;-65
2022/08/21 00:36:02;;;;;;;1.27;0.73;;;;;;;-140.72;100.00;52561.31;4951015;28;20054;-64
2022/08/21 00:38:28;;;;;;;2.08;0.60;;;;;;;-140.72;100.00;52565.38;4952265;28;20028;-64
2022/08/21 00:40:58;;;;;;;1.50;0.88;;;;;;;-140.72;100.00;52536.97;4968162;28;20500;-65
2022/08/21 00:43:28;;;;;;;1.75;1.05;;;;;;;-140.72;100.00;52571.47;4957378;28;20280;-64
2022/08/21 00:45:54;;;;;;;;;;;;;;;-140.72;100.00;52518.69;4963615;28;20027;-65
2022/08/21 00:48:19;;;;;;;3.13;1.42;;;;;;;-140.72;100.00;52585.66;4953228;28;20356;-64
2022/08/21 00:51:11;;;;;;;2.05;1.20;;;;;;;-140.72;100.00;52553.19;4958064;28;20507;-64
2022/08/21 00:53:40;;;;;;;2.15;1.05;;;;;;;-140.72;100.00;52553.19;4945014;28;20039;-65
2022/08/21 00:56:08;;;;;;;2.90;1.38;;;;;;;-140.72;100.00;52557.25;4963805;28;20038;-65
2022/08/21 00:58:37;;;;;;;1.73;1.00;;;;;;;-140.72;100.00;52561.31;4955384;28;20358;-65
2022/08/21 01:01:05;;;;;;;1.60;0.80;;;;;;;-140.72;100.00;52567.41;4952658;28;20452;-64
2022/08/21 01:03:33;;;;;;;1.92;1.20;;;;;;;-140.72;100.00;52553.19;4953436;28;20023;-64
2022/08/21 01:05:58;;;;;;;1.33;0.65;;;;;;;-140.72;100.00;52573.50;4958322;28;20105;-64
2022/08/21 01:08:24;;;;;;;3.05;0.80;;;;;;;-140.72;100.00;52603.94;4954003;28;20379;-64
2022/08/21 01:10:52;;;;;;;4.15;0.80;;;;;;;-140.72;100.00;52553.19;4968501;28;20030;-64
2022/08/21 01:13:19;;;;;;;1.67;0.75;;;;;;;-140.72;100.00;52569.44;4964133;28;20027;-65
2022/08/21 01:15:48;;;;;;;1.65;0.73;;;;;;;-140.72;100.00;52561.31;4951864;28;20091;-64
2022/08/21 01:18:14;;;;;;;2.70;1.00;;;;;;;-140.72;100.00;52567.41;4951517;28;20085;-64
2022/08/21 01:20:45;;;;;;;2.08;0.98;;;;;;;-140.72;100.00;52583.63;4962308;28;20384;-65
2022/08/21 01:23:11;;;;;;;2.10;1.02;;;;;;;-140.72;100.00;52553.19;4954843;28;20031;-65
2022/08/21 01:25:36;;;;;;;3.38;1.25;;;;;;;-140.72;100.00;52565.38;4962575;28;20038;-64
2022/08/21 01:28:12;;;;;;;1.70;1.08;;;;;;;-140.72;100.00;52589.72;4951882;28;20039;-64
2022/08/21 01:30:41;;;;;;;3.15;1.00;;;;;;;-140.72;100.00;52541.03;4950511;28;20121;-64
2022/08/21 01:33:06;;;;;;;2.20;1.27;;;;;;;-140.72;100.00;52571.47;4951889;28;20031;-64
2022/08/21 01:35:32;;;;;;;4.40;1.45;;;;;;;-140.72;100.00;52545.06;4951816;28;20420;-65
2022/08/21 01:37:57;;;;;;;1.88;1.13;;;;;;;-140.72;100.00;52555.22;4939618;28;20110;-65
2022/08/21 01:40:23;;;;;;;4.57;1.27;;;;;;;-140.72;100.00;52565.38;4952054;28;20086;-64
2022/08/21 01:42:48;;;;;;;2.13;0.90;;;;;;;-140.72;100.00;52563.34;4939193;28;20035;-64
2022/08/21 01:45:15;;;;;;;3.35;1.00;;;;;;;-140.72;100.00;52601.91;4947292;28;20043;-65
2022/08/21 01:47:41;;;;;;;2.40;1.00;;;;;;;-140.72;100.00;52612.03;4951882;28;20106;-65
2022/08/21 01:50:10;;;;;;;4.28;1.10;;;;;;;-140.72;100.00;52557.25;4951468;28;20514;-65
2022/08/21 01:52:35;;;;;;;4.82;0.85;;;;;;;-140.72;100.00;52577.53;4949177;28;20031;-65
2022/08/21 01:55:01;;;;;;;2.17;0.95;;;;;;;-140.72;100.00;52581.59;4952716;28;20494;-65
2022/08/21 01:57:27;;;;;;;1.30;0.73;;;;;;;-140.72;100.00;52593.78;4950413;28;20248;-65
2022/08/21 01:59:53;;;;;;;3.03;0.70;;;;;;;-140.72;100.00;52559.28;4959427;28;20058;-64
2022/08/21 02:02:19;;;;;;;2.15;0.98;;;;;;;-140.72;100.00;52581.59;4953715;28;20062;-65
2022/08/21 02:04:44;;;;;;;5.85;1.10;;;;;;;-140.72;100.00;52569.44;4951096;28;20488;-64
2022/08/21 02:07:09;;;;;;;1.58;0.88;;;;;;;-140.72;100.00;52563.34;4951514;28;20035;-65
2022/08/21 02:09:35;;;;;;;1.42;0.70;;;;;;;-140.72;100.00;52583.63;4951402;28;20035;-64
2022/08/21 02:12:00;;;;;;;3.25;1.17;;;;;;;-140.72;100.00;52589.72;4950399;28;20066;-65
2022/08/21 02:14:25;;;;;;;3.13;0.90;;;;;;;-140.72;100.00;52577.53;4951958;28;20114;-64
2022/08/21 02:16:51;;;;;;;1.05;0.68;;;;;;;-140.72;100.00;52551.16;4951607;28;20439;-65
2022/08/21 02:19:17;;;;;;;1.40;0.90;;;;;;;-140.72;100.00;52569.44;4951036;28;20046;-65
2022/08/21 02:21:44;;;;;;;2.33;1.08;;;;;;;-140.72;100.00;52532.91;4951503;28;20037;-63
2022/08/21 02:24:10;;;;;;;2.95;1.00;;;;;;;-140.72;100.00;52587.69;4951175;28;20094;-65
2022/08/21 02:26:35;;;;;;;2.30;1.15;;;;;;;-140.72;100.00;52601.91;4945214;28;20074;-63
2022/08/21 02:29:01;;;;;;;1.45;0.82;;;;;;;-140.72;100.00;52597.84;4946544;28;20071;-63
2022/08/21 02:31:26;;;;;;;1.23;0.88;;;;;;;-140.72;100.00;52563.34;4949399;28;20252;-65
2022/08/21 02:33:52;;;;;;;2.05;0.93;;;;;;;-140.72;100.00;52589.72;4948898;28;20194;-64
2022/08/21 02:36:20;;;;;;;2.35;1.20;;;;;;;-140.72;100.00;52581.59;4950517;28;20050;-64
2022/08/21 02:38:46;;;;;;;2.45;0.95;;;;;;;-140.72;100.00;52534.94;4952567;28;20035;-63
2022/08/21 02:41:14;;;;;;;3.40;1.50;;;;;;;-140.72;100.00;52569.44;4951344;28;20082;-63
2022/08/21 02:43:41;;;;;;;2.60;0.82;;;;;;;-140.72;100.00;52573.50;4951768;28;20034;-64
2022/08/21 02:46:08;;;;;;;2.00;0.68;;;;;;;-140.72;100.00;52565.38;4954470;28;20506;-64
2022/08/21 02:48:34;;;;;;;2.33;1.17;;;;;;;-140.72;100.00;52569.44;4954858;28;20031;-64
2022/08/21 02:51:03;;;;;;;2.88;1.20;;;;;;;-140.72;100.00;52603.94;4955673;28;20097;-64
2022/08/21 02:53:29;;;;;;;9.25;1.58;;;;;;;-140.72;100.00;52555.22;4953932;28;20034;-64
2022/08/21 02:55:58;;;;;;;5.75;1.73;;;;;;;-140.72;100.00;52567.41;4955332;28;20039;-64
2022/08/21 02:58:31;;;;;;;2.50;1.73;;;;;;;-140.72;100.00;52551.16;4951432;28;20110;-64
2022/08/21 03:00:58;;;;;;;4.57;1.02;;;;;;;-140.72;100.00;52573.50;4953913;28;20043;-64
2022/08/21 03:03:24;;;;;;;2.15;1.45;;;;;;;-140.72;100.00;52573.50;4954533;28;20402;-65
2022/08/21 03:05:50;;;;;;;4.28;1.58;;;;;;;-140.72;100.00;52618.13;4954649;28;20035;-65
2022/08/21 03:08:16;;;;;;;3.97;1.23;;;;;;;-140.72;100.00;52581.59;4953574;28;20047;-64
2022/08/21 03:10:46;;;;;;;1.63;0.80;;;;;;;-140.72;100.00;52587.69;4954390;28;20035;-64
2022/08/21 03:13:12;;;;;;;3.25;0.70;;;;;;;-140.72;100.00;52601.91;4952890;28;20040;-64
2022/08/21 03:15:39;;;;;;;2.63;1.00;;;;;;;-140.72;100.00;52587.69;4953838;28;20042;-64
2022/08/21 03:18:06;;;;;;;2.75;1.25;;;;;;;-140.72;100.00;52618.13;4954117;28;20035;-64
2022/08/21 03:20:33;;;;;;;1.83;1.00;;;;;;;-140.72;100.00;52581.59;4952945;29;20027;-64
2022/08/21 03:23:00;;;;;;;2.22;1.15;;;;;;;-140.72;100.00;52557.25;4947439;28;20283;-64
2022/08/21 03:25:27;;;;;;;3.88;1.23;;;;;;;-140.72;100.00;52597.84;4954040;28;20027;-64
2022/08/21 03:27:53;;;;;;;1.55;0.57;;;;;;;-140.72;100.00;52587.69;4946248;28;20023;-64
2022/08/21 03:30:22;;;;;;;1.25;0.90;;;;;;;-140.72;100.00;52581.59;4953660;28;20086;-64
2022/08/21 03:32:48;;;;;;;2.83;1.00;;;;;;;-140.72;100.00;52616.09;4952382;28;20031;-63
2022/08/21 03:35:14;;;;;;;2.83;1.20;;;;;;;-140.72;100.00;52605.94;4952905;28;20762;-66
2022/08/21 03:37:40;;;;;;;3.55;1.17;;;;;;;-140.72;100.00;52583.63;4953912;28;20059;-65
2022/08/21 03:40:08;;;;;;;3.47;1.13;;;;;;;-140.72;100.00;52573.50;4951819;28;20035;-64
2022/08/21 03:42:34;;;;;;;6.00;1.00;;;;;;;-140.72;100.00;52595.81;4950052;28;20078;-64
2022/08/21 03:45:00;;;;;;;2.90;1.08;;;;;;;-140.72;100.00;52605.94;4954297;28;20043;-64
2022/08/21 03:47:25;;;;;;;1.15;0.68;;;;;;;-140.72;100.00;52605.94;4952308;28;20042;-64
2022/08/21 03:49:51;;;;;;;1.80;1.05;;;;;;;-140.72;100.00;52605.94;4953396;28;20035;-64
2022/08/21 03:52:16;;;;;;;3.58;1.00;;;;;;;-140.72;100.00;52597.84;4950017;28;20031;-63
2022/08/21 03:54:43;;;;;;;2.60;1.33;;;;;;;-140.72;100.00;52597.84;4952913;28;20400;-63
2022/08/21 03:57:10;;;;;;;2.90;1.65;;;;;;;-140.72;100.00;52563.34;4952497;28;20081;-63
2022/08/21 03:59:36;;;;;;;5.40;0.88;;;;;;;-140.72;100.00;52589.72;4954026;28;20110;-64
2022/08/21 04:02:04;;;;;;;2.30;0.88;;;;;;;-140.72;100.00;52571.47;4953444;28;20261;-65
2022/08/21 04:04:30;;;;;;;3.55;1.15;;;;;;;-140.72;100.00;52589.72;4952768;29;20027;-65
2022/08/21 04:06:57;;;;;;;5.22;1.30;;;;;;;-140.72;100.00;52571.47;4952530;28;20369;-65
2022/08/21 04:09:23;;;;;;;2.47;1.25;;;;;;;-140.72;100.00;52587.69;4953566;28;20110;-64
2022/08/21 04:11:48;;;;;;;2.28;1.23;;;;;;;-140.72;100.00;52597.84;4948210;28;20043;-65
2022/08/21 04:14:14;;;;;;;2.03;0.70;;;;;;;-140.72;100.00;52541.03;4953878;28;20034;-64
2022/08/21 04:16:41;;;;;;;7.57;1.23;;;;;;;-140.72;100.00;52573.50;4952932;28;20114;-64
2022/08/21 04:19:07;;;;;;;1.60;0.80;;;;;;;-140.72;100.00;52557.25;4945812;28;20046;-64
2022/08/21 04:21:33;;;;;;;3.35;1.20;;;;;;;-140.72;100.00;52583.63;4952477;28;20062;-64
2022/08/21 04:23:59;;;;;;;2.05;1.00;;;;;;;-140.72;100.00;52591.75;4949313;28;20043;-66
2022/08/21 04:26:25;;;;;;;5.50;0.95;;;;;;;-140.72;100.00;52567.41;4952962;28;20035;-65
2022/08/21 04:28:52;;;;;;;2.58;0.82;;;;;;;-140.72;100.00;52565.38;4953169;28;20050;-64
2022/08/21 04:31:17;;;;;;;5.15;1.35;;;;;;;-140.72;100.00;52601.91;4951848;28;20086;-64
2022/08/21 04:33:43;;;;;;;2.13;0.90;;;;;;;-140.72;100.00;52597.84;4953395;28;20027;-65
2022/08/21 04:36:08;;;;;;;8.02;2.13;;;;;;;-140.72;100.00;52581.59;4951859;28;20043;-64
2022/08/21 04:38:33;;;;;;;6.13;1.83;;;;;;;-140.72;100.00;52587.69;4952145;28;20082;-63
2022/08/21 04:40:59;;;;;;;2.40;1.52;;;;;;;-140.72;100.00;52628.28;4951736;28;20043;-63
2022/08/21 04:43:25;;;;;;;5.95;1.48;;;;;;;-140.72;100.00;52614.06;4952751;28;20027;-64
2022/08/21 04:45:51;;;;;;;2.08;1.02;;;;;;;-140.72;100.00;52567.41;4950930;28;20043;-66
2022/08/21 04:48:20;;;;;;;5.95;1.95;;;;;;;-140.72;100.00;52616.09;4952477;28;20042;-64
2022/08/21 04:51:09;;;;;;;1.80;1.33;;;;;;;-140.72;100.00;52597.84;4949308;28;20498;-65
2022/08/21 04:53:50;;;;;;;1.95;0.77;;;;;;;-140.72;100.00;52601.91;4952065;28;20042;-64
2022/08/21 04:56:26;;;;;;;4.90;1.38;;;;;;;-140.72;100.00;52620.16;4949145;29;20039;-63
2022/08/21 04:58:55;;;;;;;4.82;1.40;;;;;;;-140.72;100.00;52603.94;4951878;28;20035;-63
2022/08/21 05:01:24;;;;;;;3.20;1.83;;;;;;;-140.72;100.00;52583.63;4951816;28;20042;-65
2022/08/21 05:03:55;;;;;;;2.63;1.38;;;;;;;-140.72;100.00;52593.78;4952279;28;20415;-65
2022/08/21 05:06:21;;;;;;;2.13;1.25;;;;;;;-140.72;100.00;52567.41;4946630;28;20413;-64
2022/08/21 05:08:48;;;;;;;5.53;2.03;;;;;;;-140.72;100.00;52573.50;4938230;28;20083;-65
2022/08/21 05:11:14;;;;;;;4.15;1.65;;;;;;;-140.72;100.00;52567.41;4942439;29;20035;-65
2022/08/21 05:13:41;;;;;;;2.20;1.40;;;;;;;-140.72;100.00;52541.03;4949622;28;20251;-65
2022/08/21 05:16:06;;;;;;;5.82;1.80;;;;;;;-140.72;100.00;52587.69;4943710;28;20042;-64
2022/08/21 05:18:31;;;;;;;4.43;1.58;;;;;;;-140.72;100.00;52599.88;4949824;28;20404;-65
2022/08/21 05:20:57;;;;;;;8.48;2.65;;;;;;;-140.72;100.00;52599.88;4950848;28;20031;-63
2022/08/21 05:23:22;;;;;;;8.60;2.20;;;;;;;-140.72;100.00;52561.31;4950898;28;20129;-64
2022/08/21 05:25:48;;;;;;;8.48;2.28;;;;;;;-140.72;100.00;52585.66;4950906;28;20388;-66
2022/08/21 05:28:14;;;;;;;4.68;1.77;;;;;;;-140.72;100.00;52577.53;4950738;28;20431;-64
2022/08/21 05:30:40;;;;;;;3.28;1.48;;;;;;;-140.72;100.00;52563.34;4950723;28;20031;-64
2022/08/21 05:33:06;;;;;;;3.90;2.20;;;;;;;-140.72;100.00;52567.41;4951410;28;20046;-65
2022/08/21 05:35:32;;;;;;;7.03;2.60;;;;;;;-140.72;100.00;52577.53;4949608;28;20130;-63
2022/08/21 05:37:59;;;;;;;6.95;2.38;;;;;;;-140.72;100.00;52573.50;4951517;28;20125;-64
2022/08/21 05:40:27;;;;;;;7.95;2.17;;;;;;;-140.72;100.00;52530.88;4949563;28;20098;-64
2022/08/21 05:42:55;;;;;;;3.55;1.65;;;;;;;-140.72;100.00;52536.97;4951245;28;20075;-64
2022/08/21 05:45:21;;;;;;;2.45;1.45;;;;;;;-140.72;100.00;52577.53;4950324;28;20038;-65
2022/08/21 05:47:47;;;;;;;8.57;2.45;;;;;;;-140.72;100.00;52567.41;4950784;28;20106;-65
2022/08/21 05:50:12;;;;;;;7.75;2.58;;;;;;;-140.72;100.00;52569.44;4948654;28;20481;-65
2022/08/21 05:52:38;;;;;;;3.67;1.88;;;;;;;-140.72;100.00;52597.84;4951674;28;20090;-65
2022/08/21 05:55:04;;;;;;;7.18;2.22;;;;;;;-140.72;100.00;52559.28;4946370;28;20065;-65
2022/08/21 05:57:29;;;;;;;4.13;2.00;;;;;;;-140.72;100.00;52532.91;4950927;28;20472;-64
2022/08/21 05:59:55;;;;;;;3.65;1.85;;;;;;;-140.72;100.00;52561.31;4951286;28;20045;-65
2022/08/21 06:02:20;;;;;;;4.40;2.00;;;;;;;-140.72;100.00;52599.88;4949987;28;20039;-65
2022/08/21 06:04:46;;;;;;;4.93;1.92;;;;;;;-140.72;100.00;52563.34;4951397;28;20041;-65
2022/08/21 06:07:12;;;;;;;4.30;1.60;;;;;;;-140.72;100.00;52549.13;4949400;28;20027;-65
2022/08/21 06:09:37;;;;;;;7.72;2.38;;;;;;;-140.72;100.00;52547.09;4950778;28;20023;-64
2022/08/21 06:12:09;;;;;;;7.28;2.35;;;;;;;-140.72;100.00;52520.72;4950946;28;20194;-65
2022/08/21 06:14:36;;;;;;;5.43;2.05;;;;;;;-140.72;100.00;52543.03;4950962;28;20036;-65
2022/08/21 06:17:06;;;;;;;8.70;1.67;;;;;;;-140.72;100.00;52536.97;4951117;28;20050;-64
2022/08/21 06:19:32;;;;;;;6.10;1.90;;;;;;;-140.72;100.00;52534.94;4954867;28;20027;-65
2022/08/21 06:21:58;;;;;;;5.40;1.95;;;;;;;-140.72;100.00;52553.19;4954999;28;20082;-64
2022/08/21 06:24:24;;;;;;;6.05;1.83;;;;;;;-140.72;100.00;52514.63;4949098;28;20106;-64
2022/08/21 06:26:49;;;;;;;10.27;2.42;;;;;;;-140.72;100.00;52559.28;4955735;28;20038;-65
2022/08/21 06:29:16;;;;;;;6.07;2.00;;;;;;;-140.72;100.00;52528.84;4954276;28;20039;-64
2022/08/21 06:31:43;;;;;;;3.22;1.80;;;;;;;-140.72;100.00;52528.84;4956470;28;20069;-65
2022/08/21 06:34:12;;;;;;;3.13;1.55;;;;;;;-140.72;100.00;52543.03;4953714;28;20035;-65
2022/08/21 06:36:38;;;;;;;7.53;2.45;;;;;;;-140.72;100.00;52506.53;4955053;28;20450;-64
2022/08/21 06:39:03;;;;;;;5.72;2.10;;;;;;;-140.72;100.00;52504.50;4954673;28;20125;-64
2022/08/21 06:41:29;;;;;;;3.70;1.50;;;;;;;-140.72;100.00;52512.59;4955534;28;20027;-65
2022/08/21 06:43:55;;;;;;;5.70;2.03;;;;;;;-140.72;100.00;52512.59;4955170;28;20066;-64
2022/08/21 06:46:22;;;;;;;2.78;1.75;;;;;;;-140.72;100.00;52520.72;4949810;29;20495;-64
2022/08/21 06:48:47;;;;;;;8.48;1.67;;;;;;;-140.72;100.00;52520.72;4952839;28;20054;-64
2022/08/21 06:51:13;;;;;;;4.22;1.52;;;;;;;-140.72;100.00;52557.25;4952984;28;20039;-65
2022/08/21 06:53:38;;;;;;;6.93;1.80;;;;;;;-140.72;100.00;52524.78;4952935;28;20464;-64
2022/08/21 06:56:04;;;;;;;2.28;1.50;;;;;;;-140.72;100.00;52524.78;4952983;28;20039;-67
2022/08/21 06:58:30;;;;;;;4.38;1.40;;;;;;;-140.72;100.00;52510.59;4954061;28;20118;-66
2022/08/21 07:00:55;;;;;;;2.80;1.30;;;;;;;-140.72;100.00;52514.63;4949556;28;20024;-64
2022/08/21 07:03:23;;;;;;;3.00;1.58;;;;;;;-140.72;100.00;52545.06;4947571;28;20054;-65
2022/08/21 07:05:51;;;;;;;2.60;1.30;;;;;;;-140.72;100.00;52526.81;4953808;28;20452;-65
2022/08/21 07:08:17;;;;;;;4.10;1.70;;;;;;;-140.72;100.00;52516.66;4954196;28;20037;-65
2022/08/21 07:10:43;;;;;;;4.07;1.40;;;;;;;-140.72;100.00;52510.59;4952555;28;20039;-65
2022/08/21 07:13:11;;;;;;;3.05;1.95;;;;;;;-140.72;100.00;52486.22;4946800;28;20033;-65
2022/08/21 07:15:37;;;;;;;2.22;1.27;;;;;;;-140.72;100.00;52536.97;4951403;28;20055;-66
2022/08/21 07:18:02;;;;;;;4.65;1.85;;;;;;;-140.72;100.00;52512.59;4954940;28;20058;-65
2022/08/21 07:20:30;;;;;;;1.98;1.02;;;;;;;-140.72;100.00;52504.50;4954406;28;20035;-65
2022/08/21 07:22:59;;;;;;;3.40;1.65;;;;;;;-140.72;100.00;52490.28;4954805;28;20118;-64
2022/08/21 07:25:25;;;;;;;6.82;1.95;;;;;;;-140.72;100.00;52486.22;4953022;28;20065;-66
2022/08/21 07:27:50;;;;;;;4.30;1.60;;;;;;;-140.72;100.00;52504.50;4953513;28;20075;-64
2022/08/21 07:30:16;;;;;;;5.47;1.33;;;;;;;-140.72;100.00;52526.81;4953528;28;20035;-65
2022/08/21 07:32:41;;;;;;;5.70;1.65;;;;;;;-140.72;100.00;52482.16;4953637;28;20050;-64
2022/08/21 07:35:07;;;;;;;6.50;2.05;;;;;;;-140.72;100.00;52459.84;4953591;28;20048;-65
2022/08/21 07:37:32;;;;;;;6.88;2.20;;;;;;;-140.72;100.00;52476.09;4948993;28;20119;-64
2022/08/21 07:39:58;;;;;;;8.00;1.58;;;;;;;-140.72;100.00;52457.81;4954094;28;20065;-65
2022/08/21 07:42:23;;;;;;;4.40;1.45;;;;;;;-140.72;100.00;52431.44;4953437;28;20027;-66
2022/08/21 07:44:48;;;;;;;1.90;1.30;;;;;;;-140.72;100.00;52463.91;4946829;28;20043;-66
2022/08/21 07:47:14;;;;;;;4.43;1.25;;;;;;;-140.72;100.00;52482.16;4953405;28;20452;-65
2022/08/21 07:49:39;;;;;;;2.55;1.15;;;;;;;-140.72;100.00;52435.50;4952738;28;20437;-65
2022/08/21 07:52:05;;;;;;;2.20;1.08;;;;;;;-140.72;100.00;52478.13;4952860;28;20122;-66
2022/08/21 07:54:30;;;;;;;4.93;2.05;;;;;;;-140.72;100.00;52435.50;4952435;28;20383;-65
2022/08/21 07:56:55;;;;;;;5.75;1.77;;;;;;;-140.72;100.00;52463.91;4950196;28;20117;-65
2022/08/21 07:59:21;;;;;;;5.47;1.50;;;;;;;-140.72;100.00;52480.16;4953477;28;20444;-66
2022/08/21 08:01:46;;;;;;;4.70;1.52;;;;;;;-140.72;100.00;52470.00;4952623;28;20037;-65
2022/08/21 08:04:12;;;;;;;5.25;1.30;;;;;;;-140.72;100.00;52461.88;4952107;28;20142;-64
2022/08/21 08:06:37;;;;;;;3.83;1.20;;;;;;;-140.72;100.00;52433.47;4951354;29;20027;-65
2022/08/21 08:09:03;;;;;;;2.92;1.13;;;;;;;-140.72;100.00;52423.31;4952463;28;20035;-65
2022/08/21 08:11:30;;;;;;;4.80;1.05;;;;;;;-140.72;100.00;52407.09;4951030;28;20031;-65
2022/08/21 08:13:59;;;;;;;6.60;1.67;;;;;;;-140.72;100.00;52394.91;4951971;28;20448;-64
2022/08/21 08:16:26;;;;;;;5.67;1.70;;;;;;;-140.72;100.00;52459.84;4949985;28;20031;-64
2022/08/21 08:18:51;;;;;;;2.72;0.80;;;;;;;-140.72;100.00;52411.16;4951917;28;20045;-64
2022/08/21 08:21:18;;;;;;;6.38;1.33;;;;;;;-140.72;100.00;52370.56;4951699;28;20023;-64
2022/08/21 08:23:44;;;;;;;4.70;1.15;;;;;;;-140.72;100.00;52386.81;4951157;28;20023;-65
2022/08/21 08:26:10;;;;;;;4.07;1.48;;;;;;;-140.72;100.00;52390.84;4950608;28;20034;-65
2022/08/21 08:28:36;;;;;;;6.90;1.27;;;;;;;-140.72;100.00;52398.97;4952148;28;20035;-65
2022/08/21 08:31:01;;;;;;;2.72;1.10;;;;;;;-140.72;100.00;52364.47;4950655;28;20144;-66
2022/08/21 08:33:27;;;;;;;4.45;1.20;;;;;;;-140.72;100.00;52356.38;4952651;28;20027;-65
2022/08/21 08:35:56;;;;;;;2.83;0.90;;;;;;;-140.72;100.00;52386.81;4951532;28;20544;-64
2022/08/21 08:38:24;;;;;;;1.77;0.75;;;;;;;-140.72;100.00;52340.13;4949840;28;20122;-64
2022/08/21 08:41:02;;;;;;;2.20;1.17;;;;;;;-140.72;100.00;52368.53;4950135;28;20035;-65
2022/08/21 08:43:32;;;;;;;3.22;1.02;;;;;;;-140.72;100.00;52323.91;4951238;28;20046;-64
2022/08/21 08:46:01;;;;;;;4.93;1.35;;;;;;;-140.72;100.00;52317.81;4950671;28;20039;-64
2022/08/21 08:48:45;;;;;;;6.75;1.27;;;;;;;-140.72;100.00;52297.53;4951338;28;20480;-64
2022/08/21 08:51:30;;;;;;;3.85;1.00;;;;;;;-140.72;100.00;52309.69;4949285;28;20055;-63
2022/08/21 08:54:03;;;;;;;4.63;1.33;;;;;;;-140.72;100.00;52289.41;4951316;28;20039;-64
2022/08/21 08:56:33;;;;;;;2.72;1.02;;;;;;;-140.72;100.00;52293.47;4952079;28;20165;-65
2022/08/21 08:59:11;;;;;;;6.07;1.13;;;;;;;-140.72;100.00;52287.38;4949736;28;20075;-65
2022/08/21 09:01:36;;;;;;;2.83;1.30;;;;;;;-140.72;100.00;52258.97;4950154;29;20039;-65
2022/08/21 09:04:02;;;;;;;4.93;1.40;;;;;;;-140.72;100.00;52254.91;4952017;28;20043;-64
2022/08/21 09:06:49;;;;;;;2.53;0.88;;;;;;;-140.72;100.00;52261.00;4949870;29;20117;-65
2022/08/21 09:09:55;;;;;;;4.72;0.90;;;;;;;-140.72;100.00;52230.56;4948078;28;20118;-65
2022/08/21 09:12:23;;;;;;;6.45;1.35;;;;;;;-140.72;100.00;52242.75;4947649;28;20445;-65
2022/08/21 09:15:02;;;;;;;4.28;0.90;;;;;;;-140.72;100.00;52236.66;4951335;28;20488;-65
2022/08/21 09:17:50;;;;;;;7.72;1.42;;;;;;;-140.72;100.00;52175.78;4948445;28;20044;-65
2022/08/21 09:20:24;;;;;;;3.47;0.70;;;;;;;-140.72;0.00;52161.56;4948880;29;20141;-64
2022/08/21 09:23:05;;;;;;;1.92;0.90;;;;;;;-140.72;0.00;52151.44;4948305;28;20039;-65
2022/08/21 09:25:34;;;;;;;2.75;1.02;;;;;;;-140.72;0.00;52192.00;4949646;28;20042;-66
2022/08/21 09:27:59;;;;;;;1.80;0.60;;;;;;;-140.72;0.00;52139.25;4950187;28;20032;-66
2022/08/21 09:30:29;;;;;;;1.33;0.63;;;;;;;-140.72;0.00;52147.38;4950075;28;20090;-65
2022/08/21 09:32:55;;;;;;;3.03;0.45;;;;;;;-140.72;0.00;52246.78;4951044;28;20393;-66
2022/08/21 09:35:22;;;;;;;1.00;0.60;;;;;;;-140.72;0.00;52236.66;4946839;28;20051;-65
2022/08/21 09:37:57;;;;;;;1.65;0.88;;;;;;;-140.72;0.00;52173.75;4950648;28;20027;-64
2022/08/21 09:40:41;;;;;;;0.80;0.40;;;;;;;-140.72;0.00;52127.09;4949894;28;20398;-66
2022/08/21 09:43:18;;;;;;;2.47;0.60;;;;;;;-140.72;0.00;52102.75;4950477;28;20482;-65
2022/08/21 09:45:45;;;;;;;1.40;0.57;;;;;;;-140.72;0.00;52062.16;4950783;28;20105;-65
2022/08/21 09:48:22;;;;;;;2.90;0.85;;;;;;;-140.72;0.00;52074.34;4948321;28;20027;-65
2022/08/21 09:50:49;;;;;;;3.65;0.73;;;;;;;-140.72;0.00;52058.09;4949975;28;20468;-64
2022/08/21 09:53:22;;;;;;;4.32;0.82;;;;;;;-140.72;0.00;52021.56;4950212;28;20038;-63
2022/08/21 09:58:40;;;;;;;1.88;0.52;;;;;;;-140.72;0.00;52027.66;4950141;29;20514;-66
2022/08/21 10:01:12;;;;;;;0.70;0.30;;;;;;;-140.72;0.00;52094.63;4950142;28;20031;-65
2022/08/21 10:03:38;;;;;;;3.45;0.80;;;;;;;-140.72;0.00;52147.38;4950560;28;20027;-64
2022/08/21 10:06:08;;;;;;;1.05;0.52;;;;;;;-140.72;0.00;52194.03;4950464;28;20123;-64
2022/08/21 10:08:36;;;;;;;0.95;0.35;;;;;;;-140.72;0.00;52232.59;4950399;29;20381;-65
2022/08/21 10:11:09;;;;;;;1.35;0.60;;;;;;;-140.72;0.00;52204.19;4951457;28;20110;-65
2022/08/21 10:14:05;;;;;;;2.67;0.60;;;;;;;-140.72;0.00;52271.16;4949840;28;20035;-64
2022/08/21 10:16:43;;;;;;;1.70;0.43;;;;;;;-140.72;0.00;52244.78;4949720;28;20487;-64
2022/08/21 10:19:12;;;;;;;2.20;0.90;;;;;;;-140.72;0.00;52263.03;4951682;28;20373;-65
2022/08/21 10:22:02;;;;;;;5.00;0.60;;;;;;;-140.72;0.00;52330.00;4948242;28;20044;-64
2022/08/21 10:25:03;;;;;;;1.35;0.47;;;;;;;-140.72;0.00;52303.59;4950716;28;20023;-66
2022/08/21 10:27:40;;;;;;;9.02;0.88;;;;;;;-140.72;0.00;52283.31;4945528;28;20114;-65
2022/08/21 10:30:14;;;;;;;2.65;0.50;;;;;;;-140.72;0.00;52313.75;4950643;28;20035;-65
2022/08/21 10:32:59;;;;;;;1.80;0.85;;;;;;;-140.72;0.00;52336.06;4946691;28;20027;-65
2022/08/21 10:35:31;;;;;;;2.47;0.85;;;;;;;-140.72;0.00;52330.00;4946452;28;20047;-66
2022/08/21 10:38:22;;;;;;;1.05;0.52;;;;;;;-140.72;0.00;52315.78;4950838;28;20050;-66
2022/08/21 10:41:10;;;;;;;2.08;0.60;;;;;;;-140.72;0.00;52311.72;4950738;29;20077;-65
2022/08/21 10:43:41;;;;;;;1.40;0.43;;;;;;;-140.72;0.00;52277.22;4950658;28;20031;-65
2022/08/21 10:46:19;;;;;;;1.58;0.77;;;;;;;-140.72;0.00;52183.91;4950413;28;20046;-65
2022/08/21 10:48:55;;;;;;;0.68;0.40;;;;;;;-140.72;0.00;52157.53;4951087;28;20027;-66
2022/08/21 10:51:33;;;;;;;1.20;0.50;;;;;;;-140.72;0.00;52196.06;4950085;28;20122;-66
2022/08/21 10:54:24;;;;;;;2.78;0.75;;;;;;;-140.72;0.00;52236.66;4950386;28;20046;-66
2022/08/21 10:56:58;;;;;;;1.58;0.73;;;;;;;-140.72;0.00;52206.22;4951736;29;20036;-66
2022/08/21 10:59:36;;;;;;;1.45;0.47;;;;;;;-140.72;0.00;52267.09;4950608;28;20032;-66
2022/08/21 11:02:15;;;;;;;1.02;0.45;;;;;;;-140.72;0.00;52273.19;4948625;29;20067;-66
2022/08/21 11:04:57;;;;;;;1.02;0.50;;;;;;;-140.72;0.00;52127.09;4953746;28;20028;-65
2022/08/21 11:07:30;;;;;;;2.17;0.82;;;;;;;-140.72;0.00;52143.31;4954883;28;20027;-65
2022/08/21 11:09:59;;;;;;;5.82;1.02;;;;;;;-140.72;0.00;52169.69;4950872;28;20043;-66
2022/08/21 11:12:38;;;;;;;0.68;0.28;;;;;;;-140.72;0.00;52212.31;4953593;28;20118;-65
2022/08/21 11:15:12;;;;;;;0.40;0.20;;;;;;;-140.72;0.00;52049.97;4954752;28;20039;-66
2022/08/21 11:17:49;;;;;;;1.27;0.55;;;;;;;-140.72;0.00;52005.34;4954044;28;20035;-64
2022/08/21 11:20:38;;;;;;;0.90;0.35;;;;;;;-140.72;0.00;52041.88;4953831;28;20066;-64
2022/08/21 11:23:14;;;;;;;2.17;0.57;;;;;;;-140.72;0.00;52110.84;4942744;29;20031;-65